Time;durP1;ratioP1;P1;durP2;ratioP2;P2;SDS_P1;SDS_P2;PMS_P1;PMS_P2;Temp;Humidity;BMP_temperature;BMP_pressure;BME280_temperature;BME280_humidity;BME280_pressure;Samples;Min_cycle;Max_cycle;Signal;HPM_P1;HPM_P2
2022/10/06 00:00:20;;;;;;;;;;;21.40;99.90;;;;;;5133378;27;19903;-73
2022/10/06 00:02:46;;;;;;;;;;;21.40;99.90;;;;;;5133051;27;19975;-72
2022/10/06 00:05:11;;;;;;;;;;;21.40;99.90;;;;;;5132943;27;20353;-74
2022/10/06 00:07:37;;;;;;;;;;;21.40;99.90;;;;;;5132969;27;19954;-72
2022/10/06 00:10:04;;;;;;;;;;;21.40;99.90;;;;;;5133254;27;19903;-72
2022/10/06 00:12:37;;;;;;;;;;;21.30;99.90;;;;;;5132729;27;20011;-72
2022/10/06 00:15:03;;;;;;;;;;;21.20;99.90;;;;;;5133188;27;19910;-72
2022/10/06 00:17:29;;;;;;;;;;;21.10;99.90;;;;;;5028099;27;2975526;-73
2022/10/06 00:19:55;;;;;;;;;;;21.10;99.90;;;;;;5133750;27;20365;-73
2022/10/06 00:22:20;;;;;;;;;;;21.10;99.90;;;;;;5133800;27;19914;-72
2022/10/06 00:24:46;;;;;;;;;;;21.10;99.90;;;;;;5133575;27;19943;-73
2022/10/06 00:27:12;;;;;;;;;;;21.00;99.90;;;;;;5133609;27;19907;-73
2022/10/06 00:29:41;;;;;;;;;;;21.00;99.90;;;;;;5133647;27;19903;-72
2022/10/06 00:32:08;;;;;;;;;;;21.00;99.90;;;;;;5132540;27;20051;-72
2022/10/06 00:34:37;;;;;;;;;;;21.00;99.90;;;;;;5149193;27;19903;-73
2022/10/06 00:37:03;;;;;;;;;;;21.00;99.90;;;;;;5131963;27;19933;-73
2022/10/06 00:39:29;;;;;;;;;;;21.00;99.90;;;;;;5133525;27;20243;-73
2022/10/06 00:41:55;;;;;;;;;;;20.90;99.90;;;;;;5133506;27;19933;-72
2022/10/06 00:44:21;;;;;;;;;;;20.90;99.90;;;;;;5133155;27;20355;-72
2022/10/06 00:46:48;;;;;;;;;;;20.90;99.90;;;;;;5133593;27;19904;-72
2022/10/06 00:49:19;;;;;;;;;;;20.90;99.90;;;;;;5133049;27;19988;-72
2022/10/06 00:51:53;;;;;;;;;;;20.80;99.90;;;;;;5133357;27;20002;-72
2022/10/06 00:54:19;;;;;;;;;;;20.90;99.90;;;;;;5133158;27;20458;-72
2022/10/06 00:56:46;;;;;;;;;;;20.90;99.90;;;;;;5133124;27;19994;-73
2022/10/06 00:59:13;;;;;;;;;;;20.90;99.90;;;;;;5133048;27;19908;-72
2022/10/06 01:01:40;;;;;;;;;;;20.90;99.90;;;;;;5132647;27;20021;-73
2022/10/06 01:04:08;;;;;;;;;;;20.80;99.90;;;;;;5132594;27;19904;-73
2022/10/06 01:06:44;;;;;;;;;;;20.80;99.90;;;;;;5132635;27;19975;-72
2022/10/06 01:09:10;;;;;;;;;;;20.80;99.90;;;;;;5132777;27;20300;-72
2022/10/06 01:11:36;;;;;;;;;;;20.70;99.90;;;;;;5132631;27;19907;-72
2022/10/06 01:14:02;;;;;;;;;;;20.70;99.90;;;;;;5132639;27;19925;-72
2022/10/06 01:16:28;;;;;;;;;;;20.70;99.90;;;;;;5132320;27;19923;-72
2022/10/06 01:18:54;;;;;;;;;;;20.70;99.90;;;;;;5130941;27;20006;-71
2022/10/06 01:21:43;;;;;;;;;;;20.70;99.90;;;;;;5132765;27;19907;-72
2022/10/06 01:24:09;;;;;;;;;;;20.70;99.90;;;;;;5132388;27;19983;-72
2022/10/06 01:26:36;;;;;;;;;;;20.70;99.90;;;;;;5132498;27;19963;-72
2022/10/06 01:29:02;;;;;;;;;;;20.70;99.90;;;;;;5132334;27;20281;-72
2022/10/06 01:31:28;;;;;;;;;;;20.70;99.90;;;;;;5132422;27;19930;-72
2022/10/06 01:33:54;;;;;;;;;;;20.70;99.90;;;;;;5130499;27;20220;-71
2022/10/06 01:36:20;;;;;;;;;;;20.70;99.90;;;;;;5130686;27;19922;-72
2022/10/06 01:38:46;;;;;;;;;;;20.70;99.90;;;;;;5132197;27;19904;-73
2022/10/06 01:41:12;;;;;;;;;;;20.60;99.90;;;;;;5130603;27;19918;-71
2022/10/06 01:43:37;;;;;;;;;;;20.60;99.90;;;;;;5132360;27;19907;-71
2022/10/06 01:46:03;;;;;;;;;;;20.60;99.90;;;;;;5132201;27;19903;-73
2022/10/06 01:48:29;;;;;;;;;;;20.60;99.90;;;;;;5130561;27;19979;-72
2022/10/06 01:50:55;;;;;;;;;;;20.60;99.90;;;;;;5130995;27;20311;-72
2022/10/06 01:53:21;;;;;;;;;;;20.50;99.90;;;;;;5131949;27;19993;-72
2022/10/06 01:55:47;;;;;;;;;;;20.50;99.90;;;;;;5131826;27;20360;-72
2022/10/06 01:58:13;;;;;;;;;;;20.40;99.90;;;;;;5132009;27;19903;-72
2022/10/06 02:00:39;;;;;;;;;;;20.40;99.90;;;;;;5131898;27;19915;-71
2022/10/06 02:03:06;;;;;;;;;;;20.30;99.90;;;;;;5132283;27;19951;-72
2022/10/06 02:05:32;;;;;;;;;;;20.30;99.90;;;;;;5131802;27;19907;-71
2022/10/06 02:07:59;;;;;;;;;;;20.30;99.90;;;;;;5132201;27;19903;-72
2022/10/06 02:10:25;;;;;;;;;;;20.30;99.90;;;;;;5131766;27;19903;-71
2022/10/06 02:12:51;;;;;;;;;;;20.20;99.90;;;;;;5130135;28;20389;-72
2022/10/06 02:15:17;;;;;;;;;;;20.30;99.90;;;;;;5130263;28;19910;-72
2022/10/06 02:17:43;;;;;;;;;;;20.20;99.90;;;;;;5131552;27;20392;-71
2022/10/06 02:20:09;;;;;;;;;;;20.20;99.90;;;;;;5132044;28;20002;-72
2022/10/06 02:22:39;;;;;;;;;;;20.20;99.90;;;;;;5131934;28;19973;-72
2022/10/06 02:25:05;;;;;;;;;;;20.10;99.90;;;;;;5131345;27;19903;-71
2022/10/06 02:27:31;;;;;;;;;;;20.10;99.90;;;;;;5130874;27;20021;-73
2022/10/06 02:29:57;;;;;;;;;;;20.10;99.90;;;;;;5130757;27;19938;-71
2022/10/06 02:32:23;;;;;;;;;;;20.10;99.90;;;;;;5130785;28;19986;-72
2022/10/06 02:34:49;;;;;;;;;;;20.10;99.90;;;;;;5131761;27;19965;-73
2022/10/06 02:37:16;;;;;;;;;;;20.10;99.90;;;;;;5130253;28;19999;-73
2022/10/06 02:39:42;;;;;;;;;;;20.10;99.90;;;;;;5131564;27;20319;-72
2022/10/06 02:42:07;;;;;;;;;;;20.10;99.90;;;;;;5131726;28;19911;-73
2022/10/06 02:44:33;;;;;;;;;;;20.00;99.90;;;;;;5131525;28;19903;-73
2022/10/06 02:46:59;;;;;;;;;;;20.00;99.90;;;;;;5131526;28;20006;-72
2022/10/06 02:49:25;;;;;;;;;;;19.90;99.90;;;;;;5131472;28;19903;-72
2022/10/06 02:51:50;;;;;;;;;;;19.80;99.90;;;;;;5131440;28;20240;-73
2022/10/06 02:54:16;;;;;;;;;;;19.70;99.90;;;;;;5131561;27;19903;-72
2022/10/06 02:56:42;;;;;;;;;;;19.70;99.90;;;;;;5135304;27;19954;-72
2022/10/06 02:59:08;;;;;;;;;;;19.60;99.90;;;;;;5135589;27;19968;-72
2022/10/06 03:01:34;;;;;;;;;;;19.60;99.90;;;;;;5135392;27;20026;-73
2022/10/06 03:03:59;;;;;;;;;;;19.60;99.90;;;;;;5133874;27;19904;-72
2022/10/06 03:06:27;;;;;;;;;;;19.60;99.90;;;;;;5135623;27;19903;-72
2022/10/06 03:08:53;;;;;;;;;;;19.60;99.90;;;;;;5136181;27;19903;-72
2022/10/06 03:11:20;;;;;;;;;;;19.60;99.90;;;;;;5135975;27;20248;-72
2022/10/06 03:13:46;;;;;;;;;;;19.50;99.90;;;;;;5135934;27;19952;-72
2022/10/06 03:16:14;;;;;;;;;;;19.50;99.90;;;;;;5134358;27;20068;-72
2022/10/06 03:18:42;;;;;;;;;;;19.50;99.90;;;;;;5135753;27;20375;-73
2022/10/06 03:21:08;;;;;;;;;;;19.50;99.90;;;;;;5136008;27;19910;-73
2022/10/06 03:23:34;;;;;;;;;;;19.50;99.90;;;;;;5135752;27;20434;-72
2022/10/06 03:26:00;;;;;;;;;;;19.50;99.90;;;;;;5136145;27;19903;-72
2022/10/06 03:28:26;;;;;;;;;;;19.50;99.90;;;;;;5134773;27;19904;-72
2022/10/06 03:30:53;;;;;;;;;;;19.50;99.90;;;;;;5136485;27;19915;-72
2022/10/06 03:33:19;;;;;;;;;;;19.50;99.90;;;;;;5134109;27;19990;-73
2022/10/06 03:35:45;;;;;;;;;;;19.40;99.90;;;;;;5136539;27;19946;-72
2022/10/06 03:38:11;;;;;;;;;;;19.40;99.90;;;;;;5135962;27;20381;-72
2022/10/06 03:40:36;;;;;;;;;;;19.40;99.90;;;;;;5135980;27;19928;-72
2022/10/06 03:43:03;;;;;;;;;;;19.50;99.90;;;;;;5135853;27;19904;-72
2022/10/06 03:45:28;;;;;;;;;;;19.40;99.90;;;;;;5134323;27;20031;-73
2022/10/06 03:47:54;;;;;;;;;;;19.40;99.90;;;;;;5135681;27;20009;-72
2022/10/06 03:50:20;;;;;;;;;;;19.40;99.90;;;;;;5134364;27;20289;-72
2022/10/06 03:52:50;;;;;;;;;;;19.40;99.90;;;;;;5136170;27;20355;-72
2022/10/06 03:55:15;;;;;;;;;;;19.40;99.90;;;;;;5135714;27;19990;-73
2022/10/06 03:57:41;;;;;;;;;;;19.40;99.90;;;;;;5135756;27;20026;-72
2022/10/06 04:00:08;;;;;;;;;;;19.30;99.90;;;;;;5135457;27;19922;-72
2022/10/06 04:02:33;;;;;;;;;;;19.30;99.90;;;;;;5135890;27;20318;-72
2022/10/06 04:04:59;;;;;;;;;;;19.30;99.90;;;;;;5135572;27;19903;-72
2022/10/06 04:07:25;;;;;;;;;;;19.20;99.90;;;;;;5133950;27;19923;-72
2022/10/06 04:09:51;;;;;;;;;;;19.20;99.90;;;;;;5135641;27;19903;-72
2022/10/06 04:12:17;;;;;;;;;;;19.20;99.90;;;;;;5134884;27;19929;-73
2022/10/06 04:14:42;;;;;;;;;;;19.20;99.90;;;;;;5135322;27;19919;-72
2022/10/06 04:17:08;;;;;;;;;;;19.20;99.90;;;;;;5134961;27;20361;-73
2022/10/06 04:19:34;;;;;;;;;;;19.10;99.90;;;;;;5135961;27;19911;-72
2022/10/06 04:22:00;;;;;;;;;;;19.10;99.90;;;;;;5135920;27;20258;-72
2022/10/06 04:24:26;;;;;;;;;;;19.00;99.90;;;;;;5136384;27;19911;-72
2022/10/06 04:26:51;;;;;;;;;;;19.00;99.90;;;;;;5135772;27;19949;-72
2022/10/06 04:29:17;;;;;;;;;;;19.00;99.90;;;;;;5135798;27;19907;-72
2022/10/06 04:31:43;;;;;;;;;;;19.00;99.90;;;;;;5136161;27;19911;-72
2022/10/06 04:34:12;;;;;;;;;;;19.00;99.90;;;;;;5135922;27;19931;-73
2022/10/06 04:36:40;;;;;;;;;;;19.00;99.90;;;;;;5134233;27;19983;-72
2022/10/06 04:39:06;;;;;;;;;;;19.10;99.90;;;;;;5135394;27;20248;-72
2022/10/06 04:41:34;;;;;;;;;;;19.00;99.90;;;;;;5135684;27;19907;-72
2022/10/06 04:44:00;;;;;;;;;;;19.00;99.90;;;;;;5135456;27;19990;-72
2022/10/06 04:46:26;;;;;;;;;;;19.00;99.90;;;;;;5135433;27;19957;-73
2022/10/06 04:48:52;;;;;;;;;;;19.00;99.90;;;;;;5134974;27;20378;-73
2022/10/06 04:51:19;;;;;;;;;;;18.90;99.90;;;;;;5133619;27;20244;-72
2022/10/06 04:53:45;;;;;;;;;;;18.80;99.90;;;;;;5134957;27;20386;-72
2022/10/06 04:56:15;;;;;;;;;;;18.80;99.90;;;;;;5134990;27;19903;-72
2022/10/06 04:58:42;;;;;;;;;;;18.80;99.90;;;;;;5134871;27;19903;-72
2022/10/06 05:01:26;;;;;;;;;;;18.80;99.90;;;;;;5133589;27;19911;-72
2022/10/06 05:03:54;;;;;;;;;;;18.80;99.90;;;;;;5134706;27;19915;-72
2022/10/06 05:06:22;;;;;;;;;;;18.80;99.90;;;;;;5134977;27;20355;-72
2022/10/06 05:08:48;;;;;;;;;;;18.80;99.90;;;;;;5134833;27;19904;-72
2022/10/06 05:11:14;;;;;;;;;;;18.80;99.90;;;;;;5134539;27;19903;-72
2022/10/06 05:13:40;;;;;;;;;;;18.70;99.90;;;;;;5134330;27;19914;-72
2022/10/06 05:16:07;;;;;;;;;;;18.70;99.90;;;;;;5133855;27;19920;-72
2022/10/06 05:18:33;;;;;;;;;;;18.70;99.90;;;;;;5132572;27;19914;-72
2022/10/06 05:21:02;;;;;;;;;;;18.70;99.90;;;;;;5134632;27;19986;-72
2022/10/06 05:23:29;;;;;;;;;;;18.70;99.90;;;;;;5134115;27;19903;-72
2022/10/06 05:25:55;;;;;;;;;;;18.80;99.90;;;;;;5134638;27;20312;-73
2022/10/06 05:28:22;;;;;;;;;;;18.80;99.90;;;;;;5134396;27;20348;-72
2022/10/06 05:30:59;;;;;;;;;;;18.70;99.90;;;;;;5133778;27;19911;-72
2022/10/06 05:33:26;;;;;;;;;;;18.80;99.90;;;;;;5133465;27;19911;-73
2022/10/06 05:35:52;;;;;;;;;;;18.90;99.90;;;;;;5133277;27;19911;-72
2022/10/06 05:38:18;;;;;;;;;;;18.90;99.90;;;;;;5133378;27;19910;-72
2022/10/06 05:40:44;;;;;;;;;;;19.30;99.90;;;;;;5133650;27;19915;-72
2022/10/06 05:43:10;;;;;;;;;;;19.90;99.90;;;;;;5133164;27;19903;-72
2022/10/06 05:45:35;;;;;;;;;;;20.30;99.90;;;;;;5133185;27;20295;-72
2022/10/06 05:48:01;;;;;;;;;;;20.50;99.90;;;;;;5131621;27;19958;-73
2022/10/06 05:50:27;;;;;;;;;;;20.90;99.90;;;;;;5132813;27;19903;-72
2022/10/06 05:52:53;;;;;;;;;;;21.50;99.90;;;;;;5132668;27;19912;-72
2022/10/06 05:55:19;;;;;;;;;;;22.00;99.90;;;;;;5132678;27;20082;-72
2022/10/06 05:57:45;;;;;;;;;;;22.30;99.90;;;;;;5132784;28;20351;-72
2022/10/06 06:00:11;;;;;;;;;;;22.70;99.90;;;;;;5131272;28;19910;-72
2022/10/06 06:02:37;;;;;;;;;;;23.20;99.90;;;;;;5131021;28;19903;-73
2022/10/06 06:05:03;;;;;;;;;;;23.50;99.90;;;;;;5132726;28;19971;-72
2022/10/06 06:07:29;;;;;;;;;;;23.40;99.90;;;;;;5132411;27;19960;-71
2022/10/06 06:09:54;;;;;;;;;;;23.40;99.90;;;;;;5132662;27;19903;-72
2022/10/06 06:12:20;;;;;;;;;;;23.90;99.90;;;;;;5130961;28;19999;-72
2022/10/06 06:17:31;;;;;;;;;;;23.60;99.90;;;;;;5132727;28;19923;-72
2022/10/06 06:19:56;;;;;;;;;;;23.40;99.90;;;;;;5132843;27;19904;-72
2022/10/06 06:22:22;;;;;;;;;;;23.50;99.90;;;;;;5133508;28;19907;-73
2022/10/06 06:24:49;;;;;;;;;;;24.00;99.90;;;;;;5133084;27;20359;-73
2022/10/06 06:27:15;;;;;;;;;;;24.60;99.90;;;;;;5131670;28;20283;-73
2022/10/06 06:29:40;;;;;;;;;;;25.10;99.90;;;;;;5133121;27;20383;-73
2022/10/06 06:32:09;;;;;;;;;;;25.70;99.90;;;;;;5135646;27;19907;-72
2022/10/06 06:34:35;;;;;;;;;;;25.20;99.90;;;;;;5137076;27;19947;-71
2022/10/06 06:37:02;;;;;;;;;;;25.20;99.90;;;;;;5137003;27;20013;-73
2022/10/06 06:39:28;;;;;;;;;;;25.80;99.90;;;;;;5137214;27;19950;-72
2022/10/06 06:41:53;;;;;;;;;;;26.30;99.90;;;;;;5136935;27;19911;-73
2022/10/06 06:44:19;;;;;;;;;;;27.00;99.90;;;;;;5137332;27;19904;-73
2022/10/06 06:46:48;;;;;;;;;;;27.10;99.90;;;;;;5136885;27;20355;-73
2022/10/06 06:49:14;;;;;;;;;;;27.30;99.90;;;;;;5136893;27;19910;-72
2022/10/06 06:51:42;;;;;;;;;;;27.40;99.90;;;;;;5136614;27;20029;-73
2022/10/06 06:54:08;;;;;;;;;;;27.80;99.90;;;;;;5135357;27;19903;-72
2022/10/06 06:56:34;;;;;;;;;;;27.60;99.90;;;;;;5135403;27;19903;-72
2022/10/06 06:59:01;;;;;;;;;;;28.30;99.90;;;;;;5136747;27;19979;-73
2022/10/06 07:01:27;;;;;;;;;;;28.50;99.90;;;;;;5136435;27;19956;-73
2022/10/06 07:03:54;;;;;;;;;;;28.40;99.90;;;;;;5136630;27;19986;-73
2022/10/06 07:06:20;;;;;;;;;;;28.70;99.90;;;;;;5136743;27;19914;-73
2022/10/06 07:08:47;;;;;;;;;;;29.30;99.90;;;;;;5136473;27;20430;-73
2022/10/06 07:11:23;;;;;;;;;;;28.90;99.90;;;;;;5136422;27;20255;-74
2022/10/06 07:13:53;;;;;;;;;;;28.50;99.90;;;;;;5136850;27;19962;-73
2022/10/06 07:27:20;;;;;;;;;;;27.80;99.90;;;;;;5136695;27;19925;-72
2022/10/06 07:29:46;;;;;;;;;;;26.50;99.90;;;;;;5136656;27;19986;-73
2022/10/06 07:32:12;;;;;;;;;;;26.30;99.90;;;;;;5136153;27;20006;-72
2022/10/06 07:34:40;;;;;;;;;;;25.90;99.90;;;;;;5136299;27;20377;-73
2022/10/06 07:37:05;;;;;;;;;;;26.00;99.90;;;;;;5136087;27;20010;-72
2022/10/06 07:39:31;;;;;;;;;;;26.20;99.90;;;;;;5135878;27;19947;-72
2022/10/06 07:41:57;;;;;;;;;;;26.00;99.90;;;;;;5133824;27;20286;-73
2022/10/06 07:44:23;;;;;;;;;;;25.60;99.90;;;;;;5135783;27;19922;-72
2022/10/06 07:46:51;;;;;;;;;;;25.00;99.90;;;;;;5136336;27;19909;-72
2022/10/06 07:49:16;;;;;;;;;;;24.60;99.90;;;;;;5135671;27;19903;-72
2022/10/06 07:51:43;;;;;;;;;;;24.30;99.90;;;;;;5135649;27;19968;-72
2022/10/06 07:54:09;;;;;;;;;;;24.30;99.90;;;;;;5134001;27;19904;-73
2022/10/06 07:56:35;;;;;;;;;;;24.00;99.90;;;;;;5134881;27;19903;-73
2022/10/06 07:59:01;;;;;;;;;;;24.00;99.90;;;;;;5135180;27;20418;-73
2022/10/06 08:01:29;;;;;;;;;;;24.40;99.90;;;;;;5134620;27;19919;-73
2022/10/06 08:03:54;;;;;;;;;;;24.70;99.90;;;;;;5134582;27;19904;-73
2022/10/06 08:06:22;;;;;;;;;;;24.80;99.90;;;;;;5134961;27;19947;-73
2022/10/06 08:08:51;;;;;;;;;;;24.70;99.90;;;;;;5133213;27;20028;-73
2022/10/06 08:11:17;;;;;;;;;;;24.60;99.90;;;;;;5134623;27;19911;-73
2022/10/06 08:13:44;;;;;;;;;;;24.30;99.90;;;;;;5133022;27;19911;-73
2022/10/06 08:16:11;;;;;;;;;;;24.70;99.90;;;;;;5134192;27;19915;-73
2022/10/06 08:18:37;;;;;;;;;;;25.00;99.90;;;;;;5135845;27;20010;-73
2022/10/06 08:21:10;;;;;;;;;;;25.00;99.90;;;;;;5134150;27;19907;-73
2022/10/06 08:23:39;;;;;;;;;;;24.90;99.90;;;;;;5135503;27;19904;-74
2022/10/06 08:26:05;;;;;;;;;;;25.00;99.90;;;;;;5135534;27;20378;-73
2022/10/06 08:28:31;;;;;;;;;;;25.10;99.90;;;;;;5134020;27;20342;-74
2022/10/06 08:30:57;;;;;;;;;;;25.30;99.90;;;;;;5135199;27;19943;-73
2022/10/06 08:33:22;;;;;;;;;;;25.60;99.90;;;;;;5135727;27;19915;-73
2022/10/06 08:35:48;;;;;;;;;;;25.60;99.90;;;;;;5134872;27;20252;-73
2022/10/06 08:38:14;;;;;;;;;;;25.60;99.90;;;;;;5135230;27;19904;-73
2022/10/06 08:40:42;;;;;;;;;;;25.70;99.90;;;;;;5134929;27;19904;-72
2022/10/06 08:43:13;;;;;;;;;;;25.70;99.90;;;;;;5135089;27;19903;-73
2022/10/06 08:45:43;;;;;;;;;;;25.70;99.90;;;;;;5135213;27;19911;-73
2022/10/06 08:48:14;;;;;;;;;;;25.90;99.90;;;;;;5135065;27;19903;-73
2022/10/06 08:51:14;;;;;;;;;;;26.00;99.90;;;;;;5134132;27;19904;-72
2022/10/06 08:53:48;;;;;;;;;;;26.30;99.90;;;;;;5099610;27;19985;-73
2022/10/06 08:56:18;;;;;;;;;;;26.30;99.90;;;;;;5133618;27;19904;-72
2022/10/06 08:58:54;;;;;;;;;;;26.30;99.90;;;;;;5134283;27;19914;-72
2022/10/06 09:01:35;;;;;;;;;;;26.40;99.90;;;;;;5132938;27;19956;-73
2022/10/06 09:04:02;;;;;;;;;;;26.60;99.90;;;;;;5132784;27;20360;-72
2022/10/06 09:06:40;;;;;;;;;;;26.80;99.90;;;;;;5133689;27;19944;-72
2022/10/06 09:09:21;;;;;;;;;;;26.90;99.90;;;;;;5133930;27;19951;-72
2022/10/06 09:12:10;;;;;;;;;;;27.00;99.90;;;;;;5133264;27;19907;-72
2022/10/06 09:14:43;;;;;;;;;;;27.00;99.90;;;;;;5133748;27;19903;-72
2022/10/06 09:17:11;;;;;;;;;;;26.80;99.90;;;;;;5133428;27;19916;-72
2022/10/06 09:19:40;;;;;;;;;;;27.00;99.90;;;;;;5133752;27;19904;-73
2022/10/06 09:22:12;;;;;;;;;;;27.10;99.90;;;;;;5133562;27;19903;-73
2022/10/06 09:24:44;;;;;;;;;;;27.20;99.90;;;;;;5133588;27;19903;-72
2022/10/06 09:27:35;;;;;;;;;;;27.20;99.90;;;;;;5133670;27;19958;-72
2022/10/06 09:30:03;;;;;;;;;;;27.30;99.90;;;;;;5125815;27;19948;-72
2022/10/06 09:32:29;;;;;;;;;;;27.40;99.90;;;;;;5133035;27;19911;-72
2022/10/06 09:34:58;;;;;;;;;;;27.40;99.90;;;;;;5133307;27;19914;-72
2022/10/06 09:37:25;;;;;;;;;;;27.30;99.90;;;;;;5133152;27;19903;-72
2022/10/06 09:39:51;;;;;;;;;;;27.30;99.90;;;;;;5133595;27;19928;-73
2022/10/06 09:42:17;;;;;;;;;;;27.30;99.90;;;;;;5133140;27;19910;-73
2022/10/06 09:44:45;;;;;;;;;;;27.30;99.90;;;;;;5132570;27;20419;-73
2022/10/06 09:47:26;;;;;;;;;;;27.30;99.90;;;;;;5132870;27;20240;-72
2022/10/06 09:50:02;;;;;;;;;;;27.30;99.90;;;;;;5132922;27;19998;-73
2022/10/06 09:52:28;;;;;;;;;;;27.30;99.90;;;;;;5131765;27;19911;-72
2022/10/06 09:55:14;;;;;;;;;;;27.30;99.90;;;;;;5133001;27;20002;-73
2022/10/06 09:57:48;;;;;;;;;;;27.40;99.90;;;;;;5131425;28;19988;-73
2022/10/06 10:00:26;;;;;;;;;;;27.30;99.90;;;;;;5133162;27;19907;-72
2022/10/06 10:02:56;;;;;;;;;;;27.40;99.90;;;;;;5132659;27;20357;-73
2022/10/06 10:05:23;;;;;;;;;;;27.30;99.90;;;;;;5136232;27;19903;-73
2022/10/06 10:08:07;;;;;;;;;;;27.30;99.90;;;;;;5136983;27;19990;-73
2022/10/06 10:10:34;;;;;;;;;;;27.50;99.90;;;;;;5137712;27;20352;-73
2022/10/06 10:13:00;;;;;;;;;;;27.60;99.90;;;;;;5136958;27;19912;-73
2022/10/06 10:15:29;;;;;;;;;;;27.50;99.90;;;;;;5136709;27;19991;-73
2022/10/06 10:17:57;;;;;;;;;;;27.40;99.90;;;;;;5136480;27;19942;-73
2022/10/06 10:20:23;;;;;;;;;;;27.60;99.90;;;;;;5136276;27;19958;-73
2022/10/06 10:22:51;;;;;;;;;;;27.50;99.90;;;;;;5136741;27;20004;-74
2022/10/06 10:25:20;;;;;;;;;;;27.50;99.90;;;;;;5136567;27;19956;-73
2022/10/06 10:27:46;;;;;;;;;;;27.40;99.90;;;;;;5134995;27;19904;-73
2022/10/06 10:30:13;;;;;;;;;;;27.40;99.90;;;;;;5136500;27;20267;-74
2022/10/06 10:32:54;;;;;;;;;;;27.30;99.90;;;;;;5134743;27;19919;-73
2022/10/06 10:35:20;;;;;;;;;;;27.40;99.90;;;;;;5134614;27;20419;-73
2022/10/06 10:37:50;;;;;;;;;;;27.30;99.90;;;;;;5136429;27;19903;-73
2022/10/06 10:40:31;;;;;;;;;;;27.30;99.90;;;;;;5136190;27;19926;-73
2022/10/06 10:43:03;;;;;;;;;;;27.30;99.90;;;;;;5136705;27;19904;-74
2022/10/06 10:45:33;;;;;;;;;;;27.30;99.90;;;;;;5136192;27;20047;-73
2022/10/06 10:48:00;;;;;;;;;;;26.90;99.90;;;;;;5136141;27;19903;-73
2022/10/06 10:50:39;;;;;;;;;;;27.00;99.90;;;;;;5136003;27;19910;-74
2022/10/06 10:53:24;;;;;;;;;;;26.90;99.90;;;;;;5136019;27;19977;-73
2022/10/06 10:55:51;;;;;;;;;;;26.80;99.90;;;;;;5135951;27;19970;-73
2022/10/06 10:58:26;;;;;;;;;;;27.10;99.90;;;;;;5135842;27;19910;-71
2022/10/06 11:00:55;;;;;;;;;;;27.20;99.90;;;;;;5136199;27;19949;-73
2022/10/06 11:03:27;;;;;;;;;;;27.10;99.90;;;;;;5135443;27;19911;-71
2022/10/06 11:06:18;;;;;;;;;;;27.20;99.90;;;;;;5135170;27;19926;-72
2022/10/06 11:08:44;;;;;;;;;;;27.30;99.90;;;;;;5134888;27;20022;-72
2022/10/06 11:11:28;;;;;;;;;;;27.20;99.90;;;;;;5136168;27;20035;-72
2022/10/06 11:13:55;;;;;;;;;;;27.20;99.90;;;;;;5135681;27;19915;-72
2022/10/06 11:16:39;;;;;;;;;;;27.00;99.90;;;;;;5133853;27;19998;-72
2022/10/06 11:19:05;;;;;;;;;;;27.00;99.90;;;;;;5135877;27;19991;-73
2022/10/06 11:21:50;;;;;;;;;;;27.20;99.90;;;;;;5136146;27;19943;-73
2022/10/06 11:24:15;;;;;;;;;;;27.20;99.90;;;;;;5134172;27;20350;-73
2022/10/06 11:27:01;;;;;;;;;;;27.30;99.90;;;;;;5134531;27;19911;-75
2022/10/06 11:29:53;;;;;;;;;;;27.40;99.90;;;;;;5136167;27;19903;-73
2022/10/06 11:32:37;;;;;;;;;;;27.60;99.90;;;;;;5136067;27;19958;-73
2022/10/06 11:35:15;;;;;;;;;;;27.70;99.90;;;;;;5136275;27;20003;-73
2022/10/06 11:37:57;;;;;;;;;;;27.80;99.90;;;;;;5135786;27;20288;-73
2022/10/06 11:40:35;;;;;;;;;;;27.80;99.90;;;;;;5136462;27;19946;-73
2022/10/06 11:43:08;;;;;;;;;;;27.80;99.90;;;;;;5136031;27;19903;-72
2022/10/06 11:45:42;;;;;;;;;;;27.60;99.90;;;;;;5135704;27;20018;-75
2022/10/06 11:48:11;;;;;;;;;;;27.50;99.90;;;;;;5134075;27;20370;-73
2022/10/06 11:50:40;;;;;;;;;;;27.40;99.90;;;;;;5135460;27;19903;-72
2022/10/06 11:53:24;;;;;;;;;;;27.40;99.90;;;;;;5134837;27;19987;-73
2022/10/06 11:56:10;;;;;;;;;;;27.60;99.90;;;;;;5134774;27;19926;-73
2022/10/06 11:58:51;;;;;;;;;;;27.30;99.90;;;;;;5135837;27;19904;-72
2022/10/06 12:01:38;;;;;;;;;;;27.30;99.90;;;;;;5135337;27;19903;-72
2022/10/06 12:04:06;;;;;;;;;;;27.30;99.90;;;;;;5133598;27;19908;-71
2022/10/06 12:06:42;;;;;;;;;;;27.30;99.90;;;;;;5135143;27;19904;-72
2022/10/06 12:09:22;;;;;;;;;;;27.20;99.90;;;;;;5135408;27;20378;-74
2022/10/06 12:11:49;;;;;;;;;;;27.30;99.90;;;;;;5135851;27;19973;-73
2022/10/06 12:14:38;;;;;;;;;;;27.20;99.90;;;;;;5135743;27;19903;-72
2022/10/06 12:17:13;;;;;;;;;;;27.20;99.90;;;;;;5135357;27;19919;-72
2022/10/06 12:19:49;;;;;;;;;;;27.20;99.90;;;;;;5135953;27;19911;-73
2022/10/06 12:22:23;;;;;;;;;;;27.30;99.90;;;;;;5135808;27;19903;-72
2022/10/06 12:24:52;;;;;;;;;;;27.30;99.90;;;;;;5135873;27;19907;-74
2022/10/06 12:27:25;;;;;;;;;;;27.30;99.90;;;;;;5133415;27;20391;-72
2022/10/06 12:30:10;;;;;;;;;;;27.10;99.90;;;;;;5133888;27;19910;-73
2022/10/06 12:32:42;;;;;;;;;;;27.10;99.90;;;;;;5103672;27;20041;-73
2022/10/06 12:35:11;;;;;;;;;;;27.40;99.90;;;;;;5134301;27;19903;-72
2022/10/06 12:37:46;;;;;;;;;;;27.40;99.90;;;;;;5135728;27;20003;-72
2022/10/06 12:40:34;;;;;;;;;;;27.40;99.90;;;;;;5136012;27;20304;-73
2022/10/06 12:43:19;;;;;;;;;;;27.20;99.90;;;;;;5136261;27;19919;-72
2022/10/06 12:45:54;;;;;;;;;;;27.30;99.90;;;;;;5135725;27;20368;-74
2022/10/06 12:48:30;;;;;;;;;;;27.30;99.90;;;;;;5134102;27;19910;-73
2022/10/06 12:51:08;;;;;;;;;;;27.30;99.90;;;;;;5135546;27;19922;-73
2022/10/06 12:53:54;;;;;;;;;;;27.60;99.90;;;;;;5134979;27;19915;-72
2022/10/06 12:56:27;;;;;;;;;;;27.60;99.90;;;;;;5119317;27;19903;-73
2022/10/06 12:58:53;;;;;;;;;;;27.60;99.90;;;;;;5134399;27;19949;-73
2022/10/06 13:01:21;;;;;;;;;;;27.30;99.90;;;;;;5133305;27;20381;-72
2022/10/06 13:03:49;;;;;;;;;;;27.30;99.90;;;;;;5133333;27;19903;-73
2022/10/06 13:06:20;;;;;;;;;;;27.40;99.90;;;;;;5134564;27;19904;-72
2022/10/06 13:09:00;;;;;;;;;;;27.50;99.90;;;;;;5134887;27;19904;-73
2022/10/06 13:11:27;;;;;;;;;;;27.30;99.90;;;;;;5134606;27;19903;-73
2022/10/06 13:13:58;;;;;;;;;;;27.40;99.90;;;;;;5134885;27;19907;-73
2022/10/06 13:16:25;;;;;;;;;;;27.10;99.90;;;;;;5134196;27;19985;-72
2022/10/06 13:18:55;;;;;;;;;;;27.10;99.90;;;;;;5134587;27;19934;-73
2022/10/06 13:21:22;;;;;;;;;;;27.20;99.90;;;;;;5134902;27;19964;-73
2022/10/06 13:23:47;;;;;;;;;;;27.20;99.90;;;;;;5134501;27;19925;-72
2022/10/06 13:26:17;;;;;;;;;;;27.30;99.90;;;;;;5134295;27;19907;-73
2022/10/06 13:28:43;;;;;;;;;;;27.20;99.90;;;;;;5134554;27;19928;-72
2022/10/06 13:31:20;;;;;;;;;;;26.80;99.90;;;;;;5134299;27;19997;-73
2022/10/06 13:33:48;;;;;;;;;;;26.90;99.90;;;;;;5134712;27;20371;-72
2022/10/06 13:36:15;;;;;;;;;;;26.90;99.90;;;;;;5134276;27;20442;-72
2022/10/06 13:38:41;;;;;;;;;;;26.70;99.90;;;;;;5134266;27;19988;-73
2022/10/06 13:41:10;;;;;;;;;;;26.80;99.90;;;;;;5134753;27;19903;-73
2022/10/06 13:43:38;;;;;;;;;;;26.80;99.90;;;;;;5134151;27;19909;-73
2022/10/06 13:46:11;;;;;;;;;;;26.80;99.90;;;;;;5134118;27;19911;-72
2022/10/06 13:48:43;;;;;;;;;;;26.70;99.90;;;;;;5133980;27;19903;-72
2022/10/06 13:51:14;;;;;;;;;;;26.60;99.90;;;;;;5133867;27;19903;-73
2022/10/06 13:53:43;;;;;;;;;;;26.70;99.90;;;;;;5134280;27;20338;-73
2022/10/06 13:56:32;;;;;;;;;;;26.60;99.90;;;;;;5133855;27;19903;-72
2022/10/06 13:59:13;;;;;;;;;;;26.70;99.90;;;;;;5133721;27;19903;-71
2022/10/06 14:01:39;;;;;;;;;;;26.80;99.90;;;;;;5134020;27;20292;-72
2022/10/06 14:04:14;;;;;;;;;;;26.70;99.90;;;;;;5132434;27;19925;-72
2022/10/06 14:07:00;;;;;;;;;;;26.70;99.90;;;;;;5132759;27;19956;-72
2022/10/06 14:09:28;;;;;;;;;;;26.90;99.90;;;;;;5133110;27;19956;-71
2022/10/06 14:12:05;;;;;;;;;;;26.70;99.90;;;;;;5132775;27;19915;-71
2022/10/06 14:14:31;;;;;;;;;;;26.60;99.90;;;;;;5133187;27;19903;-71
2022/10/06 14:16:57;;;;;;;;;;;26.60;99.90;;;;;;5132874;27;20269;-72
2022/10/06 14:19:31;;;;;;;;;;;26.50;99.90;;;;;;5133279;27;20353;-72
2022/10/06 14:21:57;;;;;;;;;;;26.50;99.90;;;;;;5132866;27;19993;-72
2022/10/06 14:24:27;;;;;;;;;;;26.50;99.90;;;;;;5132734;27;19928;-72
2022/10/06 14:26:56;;;;;;;;;;;26.40;99.90;;;;;;5133172;27;19919;-73
2022/10/06 14:29:22;;;;;;;;;;;26.30;99.90;;;;;;5132651;27;19907;-73
2022/10/06 14:31:48;;;;;;;;;;;26.30;99.90;;;;;;5132676;27;20252;-72
2022/10/06 14:34:15;;;;;;;;;;;26.30;99.90;;;;;;5132654;27;19908;-72
2022/10/06 14:36:43;;;;;;;;;;;26.20;99.90;;;;;;5133090;27;19947;-72
2022/10/06 14:39:11;;;;;;;;;;;26.20;99.90;;;;;;5132471;27;19948;-72
2022/10/06 14:41:37;;;;;;;;;;;26.20;99.90;;;;;;5132689;27;20010;-71